createdAt,value
2018-09-03T00:00:06.054Z,54.23
2018-09-03T00:02:34.671Z,47.25
2018-09-03T00:05:03.303Z,47.80
2018-09-03T00:07:31.851Z,60.85
2018-09-03T00:10:00.405Z,46.73
2018-09-03T00:12:28.944Z,45.45
2018-09-03T00:14:57.503Z,53.23
2018-09-03T00:17:26.025Z,56.70
2018-09-03T00:19:54.573Z,49.20
2018-09-03T00:22:23.103Z,47.90
2018-09-03T00:24:51.650Z,47.15
2018-09-03T00:27:20.199Z,53.00
2018-09-03T00:29:48.752Z,52.98
2018-09-03T00:32:22.730Z,52.33
2018-09-03T00:34:56.551Z,52.45
2018-09-03T00:37:30.453Z,55.73
2018-09-03T00:40:04.431Z,58.73
2018-09-03T00:42:38.192Z,59.27
2018-09-03T00:45:11.967Z,61.37
2018-09-03T00:47:40.508Z,60.43
2018-09-03T00:50:09.098Z,78.55
2018-09-03T00:52:37.731Z,52.90
2018-09-03T00:55:06.370Z,55.17
2018-09-03T00:57:34.937Z,55.00
2018-09-03T01:00:03.531Z,54.23
2018-09-03T01:02:32.065Z,52.67
2018-09-03T01:05:00.655Z,59.30
2018-09-03T01:07:29.202Z,53.90
2018-09-03T01:09:57.737Z,100.20
2018-09-03T01:12:26.303Z,61.28
2018-09-03T01:14:54.852Z,55.30
2018-09-03T01:17:23.463Z,51.50
2018-09-03T01:19:52.039Z,50.17
2018-09-03T01:22:20.578Z,60.45
2018-09-03T01:24:49.116Z,48.90
2018-09-03T01:27:17.730Z,48.75
2018-09-03T01:29:46.336Z,45.50
2018-09-03T01:32:14.926Z,45.40
2018-09-03T01:34:43.469Z,46.77
2018-09-03T01:37:12.006Z,41.05
2018-09-03T01:39:40.554Z,43.73
2018-09-03T01:42:09.064Z,47.53
2018-09-03T01:44:37.623Z,44.35
2018-09-03T01:47:06.159Z,42.93
2018-09-03T01:49:34.771Z,39.78
2018-09-03T01:52:03.289Z,46.55
2018-09-03T01:54:32.098Z,43.83
2018-09-03T01:57:00.647Z,42.00
2018-09-03T01:59:29.181Z,41.00
2018-09-03T02:01:57.739Z,59.10
2018-09-03T02:04:26.263Z,48.63
2018-09-03T02:06:54.861Z,50.38
2018-09-03T02:09:23.397Z,45.65
2018-09-03T02:11:51.948Z,52.90
2018-09-03T02:14:20.491Z,59.00
2018-09-03T02:16:49.047Z,46.02
2018-09-03T02:19:17.580Z,57.10
2018-09-03T02:21:46.126Z,54.85
2018-09-03T02:24:14.719Z,46.88
2018-09-03T02:26:43.327Z,55.05
2018-09-03T02:29:11.871Z,53.50
2018-09-03T02:31:40.417Z,57.48
2018-09-03T02:34:08.957Z,55.98
2018-09-03T02:36:37.478Z,55.70
2018-09-03T02:39:07.260Z,56.10
2018-09-03T02:41:35.899Z,63.50
2018-09-03T02:44:04.494Z,64.07
2018-09-03T02:46:33.029Z,58.92
2018-09-03T02:49:01.554Z,55.80
2018-09-03T02:51:30.115Z,57.75
2018-09-03T02:53:58.688Z,70.67
2018-09-03T02:56:27.294Z,58.15
2018-09-03T02:58:55.808Z,70.12
2018-09-03T03:01:24.339Z,75.95
2018-09-03T03:03:52.902Z,67.32
2018-09-03T03:06:21.476Z,61.33
2018-09-03T03:08:50.033Z,61.68
2018-09-03T03:11:18.581Z,66.75
2018-09-03T03:13:47.155Z,70.15
2018-09-03T03:16:15.709Z,61.18
2018-09-03T03:18:44.222Z,68.40
2018-09-03T03:21:12.755Z,58.92
2018-09-03T03:23:41.317Z,61.20
2018-09-03T03:26:09.881Z,59.27
2018-09-03T03:28:38.404Z,63.10
2018-09-03T03:31:06.984Z,60.48
2018-09-03T03:33:35.544Z,59.67
2018-09-03T03:36:04.091Z,57.25
2018-09-03T03:38:32.635Z,55.30
2018-09-03T03:41:01.173Z,58.00
2018-09-03T03:43:29.746Z,70.85
2018-09-03T03:45:58.287Z,60.83
2018-09-03T03:48:26.884Z,55.10
2018-09-03T03:50:55.435Z,58.58
2018-09-03T03:53:24.014Z,60.73
2018-09-03T03:55:52.612Z,63.23
2018-09-03T03:58:21.147Z,60.65
2018-09-03T04:00:49.663Z,52.40
2018-09-03T04:03:18.199Z,53.52
2018-09-03T04:05:46.725Z,61.80
2018-09-03T04:08:15.281Z,54.60
2018-09-03T04:10:43.783Z,57.88
2018-09-03T04:13:12.318Z,70.52
2018-09-03T04:15:40.849Z,67.32
2018-09-03T04:18:09.385Z,55.20
2018-09-03T04:20:37.982Z,60.58
2018-09-03T04:23:06.605Z,59.98
2018-09-03T04:25:35.215Z,54.77
2018-09-03T04:28:03.803Z,67.72
2018-09-03T04:30:32.356Z,72.87
2018-09-03T04:33:00.948Z,58.35
2018-09-03T04:35:29.487Z,59.25
2018-09-03T04:37:58.028Z,78.25
2018-09-03T04:40:26.596Z,69.50
2018-09-03T04:42:55.181Z,56.68
2018-09-03T04:45:23.713Z,51.60
2018-09-03T04:47:52.315Z,52.20
2018-09-03T04:50:20.903Z,61.70
2018-09-03T04:52:49.507Z,60.85
2018-09-03T04:55:18.077Z,62.00
2018-09-03T04:57:46.646Z,66.82
2018-09-03T05:00:15.959Z,62.43
2018-09-03T05:02:45.056Z,71.97
2018-09-03T05:05:13.602Z,69.72
2018-09-03T05:07:42.188Z,56.33
2018-09-03T05:10:10.751Z,52.33
2018-09-03T05:12:39.351Z,58.23
2018-09-03T05:15:07.884Z,49.83
2018-09-03T05:17:36.386Z,61.92
2018-09-03T05:20:05.067Z,57.23
2018-09-03T05:22:33.611Z,61.15
2018-09-03T05:25:02.153Z,56.88
2018-09-03T05:27:30.716Z,58.85
2018-09-03T05:29:59.291Z,64.45
2018-09-03T05:32:27.802Z,50.10
2018-09-03T05:34:56.329Z,59.33
2018-09-03T05:37:24.857Z,55.92
2018-09-03T05:39:53.413Z,52.40
2018-09-03T05:42:21.960Z,60.95
2018-09-03T05:44:50.504Z,65.55
2018-09-03T05:47:19.049Z,58.70
2018-09-03T05:49:47.614Z,59.33
2018-09-03T05:52:16.167Z,55.95
2018-09-03T05:54:44.707Z,70.65
2018-09-03T05:57:13.247Z,77.72
2018-09-03T05:59:41.842Z,73.35
2018-09-03T06:02:10.415Z,76.05
2018-09-03T06:04:38.985Z,68.70
2018-09-03T06:07:07.600Z,80.60
2018-09-03T06:09:36.226Z,69.40
2018-09-03T06:12:04.760Z,67.97
2018-09-03T06:14:33.373Z,71.15
2018-09-03T06:17:01.986Z,79.42
2018-09-03T06:19:30.527Z,76.45
2018-09-03T06:21:59.081Z,76.17
2018-09-03T06:24:27.627Z,71.82
2018-09-03T06:26:56.178Z,63.48
2018-09-03T06:29:24.723Z,70.83
2018-09-03T06:31:53.293Z,76.55
2018-09-03T06:34:21.842Z,70.60
2018-09-03T06:36:50.407Z,78.25
2018-09-03T06:39:19.118Z,67.40
2018-09-03T06:41:47.556Z,66.85
2018-09-03T06:44:16.081Z,64.67
2018-09-03T06:46:44.690Z,62.13
2018-09-03T06:49:13.228Z,67.62
2018-09-03T06:51:41.819Z,67.05
2018-09-03T06:54:10.466Z,72.70
2018-09-03T06:56:39.030Z,73.87
2018-09-03T06:59:07.601Z,62.30
2018-09-03T07:01:36.238Z,64.53
2018-09-03T07:04:04.853Z,63.45
2018-09-03T07:06:33.469Z,65.25
2018-09-03T07:09:02.087Z,64.85
2018-09-03T07:11:30.707Z,65.72
2018-09-03T07:13:59.248Z,65.83
2018-09-03T07:16:27.784Z,65.35
2018-09-03T07:18:56.348Z,60.50
2018-09-03T07:21:24.942Z,68.47
2018-09-03T07:23:53.524Z,67.30
2018-09-03T07:26:22.135Z,65.37
2018-09-03T07:28:50.717Z,63.05
2018-09-03T07:31:19.332Z,60.17
2018-09-03T07:33:47.865Z,60.90
2018-09-03T07:36:16.400Z,53.80
2018-09-03T07:38:44.928Z,52.78
2018-09-03T07:41:13.598Z,50.30
2018-09-03T07:43:42.140Z,50.78
2018-09-03T07:46:10.665Z,51.45
2018-09-03T07:48:39.588Z,50.60
2018-09-03T07:51:08.197Z,51.53
2018-09-03T07:53:36.730Z,57.70
2018-09-03T07:56:05.455Z,46.37
2018-09-03T07:58:34.016Z,48.00
2018-09-03T08:01:02.743Z,55.75
2018-09-03T08:03:31.278Z,42.40
2018-09-03T08:05:59.840Z,48.50
2018-09-03T08:08:28.392Z,45.30
2018-09-03T08:10:56.922Z,41.20
2018-09-03T08:13:30.678Z,41.88
2018-09-03T08:15:59.257Z,41.00
2018-09-03T08:18:27.789Z,44.50
2018-09-03T08:20:56.324Z,39.20
2018-09-03T08:23:24.910Z,42.30
2018-09-03T08:25:53.444Z,35.77
2018-09-03T08:28:22.019Z,37.93
2018-09-03T08:30:50.564Z,38.67
2018-09-03T08:33:19.091Z,38.10
2018-09-03T08:35:47.630Z,34.20
2018-09-03T08:38:16.134Z,36.80
2018-09-03T08:40:44.729Z,35.10
2018-09-03T08:43:13.274Z,29.40
2018-09-03T08:45:41.986Z,33.97
2018-09-03T08:48:10.586Z,38.13
2018-09-03T08:50:39.702Z,29.03
2018-09-03T08:53:08.264Z,30.80
2018-09-03T08:55:36.898Z,30.53
2018-09-03T08:58:05.489Z,31.57
2018-09-03T09:00:34.034Z,35.93
2018-09-03T09:03:02.558Z,29.60
2018-09-03T09:05:31.128Z,27.83
2018-09-03T09:07:59.747Z,27.00
2018-09-03T09:10:28.314Z,28.80
2018-09-03T09:12:56.884Z,32.27
2018-09-03T09:15:25.439Z,51.20
2018-09-03T09:17:54.023Z,29.60
2018-09-03T09:20:22.606Z,32.13
2018-09-03T09:22:51.180Z,38.53
2018-09-03T09:25:19.740Z,32.53
2018-09-03T09:27:49.264Z,27.17
2018-09-03T09:30:17.819Z,27.10
2018-09-03T09:32:46.346Z,24.63
2018-09-03T09:35:14.911Z,37.60
2018-09-03T09:37:43.460Z,23.17
2018-09-03T09:40:12.013Z,25.50
2018-09-03T09:42:41.169Z,24.30
2018-09-03T09:45:10.407Z,23.17
2018-09-03T09:47:38.949Z,27.50
2018-09-03T09:50:07.505Z,21.50
2018-09-03T09:52:36.170Z,22.03
2018-09-03T09:55:04.968Z,24.00
2018-09-03T09:57:33.528Z,20.77
2018-09-03T10:00:02.055Z,22.07
2018-09-03T10:02:30.617Z,21.60
2018-09-03T10:04:59.175Z,23.67
2018-09-03T10:07:27.701Z,20.07
2018-09-03T10:09:56.260Z,20.23
2018-09-03T10:12:30.160Z,22.00
2018-09-03T10:14:59.049Z,22.27
2018-09-03T10:17:27.954Z,25.63
2018-09-03T10:19:56.577Z,21.47
2018-09-03T10:22:25.115Z,20.77
2018-09-03T10:24:53.918Z,18.23
2018-09-03T10:27:22.524Z,20.60
2018-09-03T10:29:51.096Z,30.10
2018-09-03T10:32:20.360Z,21.30
2018-09-03T10:34:48.928Z,21.90
2018-09-03T10:37:17.489Z,20.67
2018-09-03T10:39:46.020Z,21.50
2018-09-03T10:42:17.891Z,21.77
2018-09-03T10:44:46.434Z,21.13
2018-09-03T10:47:15.170Z,18.03
2018-09-03T10:49:43.566Z,19.47
2018-09-03T10:52:12.153Z,20.27
2018-09-03T10:54:40.723Z,16.60
2018-09-03T10:57:09.359Z,19.93
2018-09-03T10:59:38.004Z,16.30
2018-09-03T11:02:06.944Z,19.63
2018-09-03T11:04:35.657Z,17.90
2018-09-03T11:07:04.312Z,20.30
2018-09-03T11:09:32.978Z,17.93
2018-09-03T11:12:01.675Z,23.53
2018-09-03T11:14:30.389Z,21.53
2018-09-03T11:16:59.007Z,17.80
2018-09-03T11:19:29.904Z,18.97
2018-09-03T11:21:58.520Z,23.80
2018-09-03T11:24:27.234Z,17.53
2018-09-03T11:26:56.136Z,20.17
2018-09-03T11:29:24.973Z,19.57
2018-09-03T11:31:53.674Z,19.67
2018-09-03T11:34:22.312Z,18.57
2018-09-03T11:36:51.007Z,16.63
2018-09-03T11:39:19.690Z,17.67
2018-09-03T11:41:48.380Z,23.17
2018-09-03T11:44:17.033Z,17.10
2018-09-03T11:46:45.680Z,17.33
2018-09-03T11:49:14.328Z,20.03
2018-09-03T11:51:42.919Z,26.03
2018-09-03T11:54:14.821Z,18.43
2018-09-03T11:56:43.403Z,17.70
2018-09-03T11:59:12.756Z,18.77
2018-09-03T12:01:41.384Z,16.50
2018-09-03T12:04:10.009Z,20.10
2018-09-03T12:06:38.723Z,20.17
2018-09-03T12:09:09.062Z,20.47
2018-09-03T12:11:37.677Z,19.57
2018-09-03T12:14:13.161Z,18.03
2018-09-03T12:16:41.831Z,20.27
2018-09-03T12:19:10.433Z,18.30
2018-09-03T12:21:39.213Z,18.10
2018-09-03T12:24:08.560Z,20.67
2018-09-03T12:26:37.188Z,22.80
2018-09-03T12:29:05.868Z,16.93
2018-09-03T12:31:34.839Z,22.77
2018-09-03T12:34:03.441Z,19.40
2018-09-03T12:36:32.045Z,27.17
2018-09-03T12:39:00.727Z,20.93
2018-09-03T12:41:29.389Z,17.47
2018-09-03T12:43:58.191Z,17.10
2018-09-03T12:46:26.825Z,20.90
2018-09-03T12:48:55.355Z,20.40
2018-09-03T12:51:23.932Z,19.27
2018-09-03T12:53:52.558Z,18.73
2018-09-03T12:56:21.160Z,19.13
2018-09-03T12:58:49.802Z,22.17
2018-09-03T13:01:18.327Z,23.20
2018-09-03T13:03:46.897Z,20.60
2018-09-03T13:06:15.494Z,21.23
2018-09-03T13:08:44.080Z,17.77
2018-09-03T13:11:12.659Z,24.70
2018-09-03T13:13:41.251Z,20.37
2018-09-03T13:16:09.834Z,17.67
2018-09-03T13:18:38.484Z,22.80
2018-09-03T13:21:07.127Z,18.37
2018-09-03T13:23:35.697Z,17.57
2018-09-03T13:26:04.296Z,17.17
2018-09-03T13:28:32.917Z,22.73
2018-09-03T13:31:01.597Z,22.67
2018-09-03T13:33:30.175Z,16.83
2018-09-03T13:35:58.742Z,21.27
2018-09-03T13:38:27.346Z,21.27
2018-09-03T13:40:55.897Z,19.33
2018-09-03T13:43:24.515Z,18.00
2018-09-03T13:45:53.878Z,24.07
2018-09-03T13:48:22.504Z,62.53
2018-09-03T13:50:51.083Z,43.80
2018-09-03T13:53:19.669Z,29.90
2018-09-03T13:55:48.216Z,26.53
2018-09-03T13:58:16.801Z,25.33
2018-09-03T14:00:45.424Z,31.90
2018-09-03T14:03:14.049Z,25.03
2018-09-03T14:05:42.613Z,27.70
2018-09-03T14:08:11.273Z,23.00
2018-09-03T14:10:39.856Z,25.90
2018-09-03T14:13:08.462Z,24.47
2018-09-03T14:15:37.051Z,24.77
2018-09-03T14:18:05.664Z,24.83
2018-09-03T14:20:34.221Z,26.23
2018-09-03T14:23:02.775Z,24.37
2018-09-03T14:25:31.337Z,22.77
2018-09-03T14:28:00.065Z,24.17
2018-09-03T14:30:29.224Z,26.57
2018-09-03T14:32:57.831Z,26.35
2018-09-03T14:35:26.399Z,26.73
2018-09-03T14:37:54.942Z,25.70
2018-09-03T14:40:23.527Z,26.00
2018-09-03T14:42:52.082Z,25.85
2018-09-03T14:45:20.772Z,24.63
2018-09-03T14:47:49.321Z,23.53
2018-09-03T14:50:17.956Z,25.20
2018-09-03T14:52:46.590Z,28.13
2018-09-03T14:55:15.296Z,24.40
2018-09-03T14:57:43.879Z,25.77
2018-09-03T15:00:12.453Z,24.53
2018-09-03T15:02:41.012Z,27.03
2018-09-03T15:05:09.641Z,27.03
2018-09-03T15:07:38.240Z,22.03
2018-09-03T15:10:06.854Z,21.67
2018-09-03T15:12:35.475Z,27.77
2018-09-03T15:15:04.177Z,20.20
2018-09-03T15:17:32.804Z,21.33
2018-09-03T15:20:01.387Z,24.40
2018-09-03T15:22:29.956Z,20.97
2018-09-03T15:24:58.543Z,24.63
2018-09-03T15:27:27.123Z,20.17
2018-09-03T15:29:55.695Z,18.30
2018-09-03T15:32:24.376Z,19.73
2018-09-03T15:34:53.116Z,22.63
2018-09-03T15:37:21.807Z,21.33
2018-09-03T15:39:50.468Z,19.37
2018-09-03T15:42:19.143Z,20.20
2018-09-03T15:44:47.762Z,19.73
2018-09-03T15:47:16.313Z,20.47
2018-09-03T15:49:44.953Z,18.60
2018-09-03T15:52:13.581Z,17.10
2018-09-03T15:54:42.323Z,19.10
2018-09-03T15:57:10.992Z,16.77
2018-09-03T15:59:39.812Z,19.77
2018-09-03T16:02:08.475Z,22.13
2018-09-03T16:04:37.026Z,23.70
2018-09-03T16:07:05.590Z,20.90
2018-09-03T16:09:34.188Z,21.20
2018-09-03T16:12:02.859Z,20.70
2018-09-03T16:14:31.683Z,21.90
2018-09-03T16:17:00.223Z,30.20
2018-09-03T16:19:28.873Z,29.13
2018-09-03T16:21:57.567Z,28.33
2018-09-03T16:24:26.112Z,25.73
2018-09-03T16:26:54.663Z,26.53
2018-09-03T16:29:23.279Z,27.90
2018-09-03T16:31:51.828Z,29.00
2018-09-03T16:34:20.385Z,21.33
2018-09-03T16:36:48.931Z,20.60
2018-09-03T16:39:17.541Z,21.27
2018-09-03T16:41:46.181Z,18.70
2018-09-03T16:44:14.708Z,21.67
2018-09-03T16:46:43.235Z,27.43
2018-09-03T16:49:11.878Z,20.13
2018-09-03T16:51:40.445Z,21.80
2018-09-03T16:54:08.987Z,22.83
2018-09-03T16:56:37.611Z,24.50
2018-09-03T16:59:06.226Z,21.30
2018-09-03T17:01:34.935Z,24.00
2018-09-03T17:04:03.624Z,26.93
2018-09-03T17:06:33.295Z,23.60
2018-09-03T17:09:01.896Z,24.20
2018-09-03T17:11:30.468Z,23.33
2018-09-03T17:13:59.050Z,21.67
2018-09-03T17:16:27.825Z,24.50
2018-09-03T17:18:56.449Z,22.20
2018-09-03T17:21:25.152Z,24.50
2018-09-03T17:23:53.759Z,31.10
2018-09-03T17:26:22.318Z,37.43
2018-09-03T17:28:51.080Z,31.67
2018-09-03T17:31:19.593Z,35.20
2018-09-03T17:33:48.249Z,31.47
2018-09-03T17:36:16.843Z,31.00
2018-09-03T17:38:45.436Z,32.43
2018-09-03T17:41:14.783Z,38.27
2018-09-03T17:43:43.348Z,44.50
2018-09-03T17:46:11.923Z,59.13
2018-09-03T17:48:40.544Z,43.73
2018-09-03T17:51:09.104Z,40.97
2018-09-03T17:53:39.956Z,40.00
2018-09-03T17:56:08.628Z,43.40
2018-09-03T17:58:37.250Z,41.90
2018-09-03T18:01:06.076Z,41.93
2018-09-03T18:03:34.673Z,36.80
2018-09-03T18:06:03.263Z,37.77
2018-09-03T18:08:31.907Z,34.10
2018-09-03T18:11:00.457Z,32.83
2018-09-03T18:13:29.030Z,34.37
2018-09-03T18:15:57.600Z,29.30
2018-09-03T18:18:26.278Z,31.80
2018-09-03T18:20:55.840Z,31.70
2018-09-03T18:23:24.420Z,30.97
2018-09-03T18:25:53.065Z,23.77
2018-09-03T18:28:21.627Z,28.53
2018-09-03T18:30:50.224Z,35.10
2018-09-03T18:33:18.887Z,26.40
2018-09-03T18:35:47.568Z,26.10
2018-09-03T18:38:16.137Z,22.27
2018-09-03T18:40:44.713Z,25.83
2018-09-03T18:43:13.287Z,28.43
2018-09-03T18:45:41.924Z,26.50
2018-09-03T18:48:10.492Z,26.23
2018-09-03T18:50:39.103Z,29.07
2018-09-03T18:53:07.745Z,24.90
2018-09-03T18:55:36.496Z,25.40
2018-09-03T18:58:05.241Z,24.67
2018-09-03T19:00:33.813Z,24.17
2018-09-03T19:03:03.258Z,28.40
2018-09-03T19:05:31.809Z,25.63
2018-09-03T19:08:00.406Z,28.00
2018-09-03T19:10:29.003Z,29.43
2018-09-03T19:12:57.564Z,25.13
2018-09-03T19:15:26.168Z,29.60
2018-09-03T19:17:54.811Z,28.47
2018-09-03T19:20:23.425Z,28.57
2018-09-03T19:22:52.097Z,22.60
2018-09-03T19:25:20.680Z,23.57
2018-09-03T19:27:49.236Z,25.47
2018-09-03T19:30:17.797Z,30.77
2018-09-03T19:32:46.363Z,26.87
2018-09-03T19:35:15.038Z,24.53
2018-09-03T19:37:43.849Z,28.20
2018-09-03T19:40:12.422Z,25.63
2018-09-03T19:42:41.024Z,28.10
2018-09-03T19:45:09.591Z,27.17
2018-09-03T19:47:38.141Z,23.53
2018-09-03T19:50:06.767Z,25.60
2018-09-03T19:52:35.308Z,26.10
2018-09-03T19:55:03.945Z,26.97
2018-09-03T19:57:32.571Z,23.43
2018-09-03T20:00:01.158Z,25.97
2018-09-03T20:02:29.765Z,27.33
2018-09-03T20:04:58.332Z,25.83
2018-09-03T20:07:26.891Z,22.30
2018-09-03T20:09:55.450Z,22.70
2018-09-03T20:12:24.066Z,23.33
2018-09-03T20:14:52.684Z,26.50
2018-09-03T20:17:22.779Z,24.80
2018-09-03T20:19:51.370Z,27.20
2018-09-03T20:22:19.934Z,23.20
2018-09-03T20:24:48.517Z,24.30
2018-09-03T20:27:17.073Z,27.40
2018-09-03T20:29:45.764Z,22.47
2018-09-03T20:32:14.481Z,30.50
2018-09-03T20:34:43.231Z,22.27
2018-09-03T20:37:11.882Z,24.83
2018-09-03T20:39:40.471Z,25.17
2018-09-03T20:42:09.499Z,23.07
2018-09-03T20:44:38.083Z,24.17
2018-09-03T20:47:06.689Z,28.53
2018-09-03T20:49:35.239Z,22.60
2018-09-03T20:52:03.843Z,29.40
2018-09-03T20:54:32.788Z,24.50
2018-09-03T20:57:01.414Z,24.77
2018-09-03T20:59:30.213Z,25.20
2018-09-03T21:01:58.562Z,27.07
2018-09-03T21:04:27.108Z,27.80
2018-09-03T21:06:55.703Z,23.67
2018-09-03T21:09:24.318Z,26.40
2018-09-03T21:11:52.902Z,26.10
2018-09-03T21:14:22.750Z,35.13
2018-09-03T21:16:51.338Z,25.62
2018-09-03T21:19:19.894Z,28.35
2018-09-03T21:21:48.491Z,23.90
2018-09-03T21:24:17.094Z,23.20
2018-09-03T21:26:45.666Z,21.67
2018-09-03T21:29:14.214Z,25.60
2018-09-03T21:31:42.792Z,23.17
2018-09-03T21:34:11.345Z,23.70
2018-09-03T21:36:39.986Z,24.67
2018-09-03T21:39:08.576Z,24.97
2018-09-03T21:41:37.245Z,24.40
2018-09-03T21:44:06.014Z,22.93
2018-09-03T21:46:34.609Z,23.40
2018-09-03T21:49:03.166Z,21.17
2018-09-03T21:51:31.810Z,34.90
2018-09-03T21:54:00.366Z,24.50
2018-09-03T21:56:28.933Z,26.20
2018-09-03T21:58:57.571Z,23.73
2018-09-03T22:01:26.179Z,21.30
2018-09-03T22:03:54.747Z,21.02
2018-09-03T22:06:23.421Z,23.27
2018-09-03T22:08:51.999Z,23.90
2018-09-03T22:11:20.569Z,22.73
2018-09-03T22:13:49.142Z,22.65
2018-09-03T22:16:19.346Z,20.75
2018-09-03T22:18:47.984Z,23.80
2018-09-03T22:21:16.590Z,21.87
2018-09-03T22:23:45.127Z,19.77
2018-09-03T22:26:13.710Z,21.82
2018-09-03T22:28:42.287Z,25.68
2018-09-03T22:31:10.874Z,24.47
2018-09-03T22:33:39.492Z,30.32
2018-09-03T22:36:08.053Z,24.05
2018-09-03T22:38:36.622Z,23.22
2018-09-03T22:41:05.519Z,29.20
2018-09-03T22:43:34.061Z,24.45
2018-09-03T22:46:03.179Z,24.32
2018-09-03T22:48:31.800Z,21.48
2018-09-03T22:51:00.360Z,19.52
2018-09-03T22:53:28.907Z,26.80
2018-09-03T22:55:57.462Z,25.12
2018-09-03T22:58:26.128Z,26.20
2018-09-03T23:00:54.718Z,27.75
2018-09-03T23:03:23.271Z,25.90
2018-09-03T23:05:51.834Z,23.02
2018-09-03T23:08:20.398Z,25.37
2018-09-03T23:10:48.928Z,23.35
2018-09-03T23:13:17.593Z,22.60
2018-09-03T23:15:51.171Z,22.55
2018-09-03T23:18:20.884Z,24.47
2018-09-03T23:20:49.444Z,22.82
2018-09-03T23:23:18.009Z,30.30
2018-09-03T23:25:47.513Z,24.12
2018-09-03T23:28:16.075Z,23.18
2018-09-03T23:30:44.661Z,25.80
2018-09-03T23:33:13.213Z,27.50
2018-09-03T23:35:41.765Z,22.58
2018-09-03T23:38:10.290Z,27.37
2018-09-03T23:40:38.841Z,25.80
2018-09-03T23:43:07.383Z,23.32
2018-09-03T23:45:35.960Z,31.77
2018-09-03T23:48:04.670Z,24.15
2018-09-03T23:50:33.239Z,25.27
2018-09-03T23:53:01.846Z,37.50
2018-09-03T23:55:30.413Z,25.82
2018-09-03T23:57:58.984Z,30.50
